createdAt,value
2017-12-21T00:01:55.476Z,2.33
2017-12-21T00:04:21.593Z,2.30
2017-12-21T00:06:47.792Z,2.60
2017-12-21T00:09:14.121Z,2.40
2017-12-21T00:11:40.423Z,2.17
2017-12-21T00:14:08.691Z,2.60
2017-12-21T00:16:34.978Z,2.50
2017-12-21T00:19:01.189Z,2.90
2017-12-21T00:21:27.484Z,1.90
2017-12-21T00:23:54.380Z,2.20
2017-12-21T00:26:20.492Z,2.07
2017-12-21T00:28:46.947Z,1.90
2017-12-21T00:31:13.952Z,1.60
2017-12-21T00:33:40.279Z,1.90
2017-12-21T00:36:06.354Z,2.77
2017-12-21T00:38:32.635Z,2.50
2017-12-21T00:40:58.766Z,2.73
2017-12-21T00:43:25.064Z,2.50
2017-12-21T00:46:04.352Z,3.07
2017-12-21T00:48:30.822Z,3.10
2017-12-21T00:50:57.136Z,3.97
2017-12-21T00:53:24.122Z,4.13
2017-12-21T00:55:50.378Z,3.00
2017-12-21T00:58:16.594Z,3.23
2017-12-21T01:00:42.817Z,4.00
2017-12-21T01:03:09.101Z,2.00
2017-12-21T01:05:35.953Z,1.47
2017-12-21T01:08:02.902Z,1.53
2017-12-21T01:10:29.878Z,1.93
2017-12-21T01:12:56.140Z,2.37
2017-12-21T01:15:22.395Z,3.13
2017-12-21T01:17:49.569Z,2.50
2017-12-21T01:20:15.893Z,2.70
2017-12-21T01:22:42.192Z,2.77
2017-12-21T01:25:09.138Z,3.10
2017-12-21T01:27:36.049Z,2.43
2017-12-21T01:30:02.226Z,2.70
2017-12-21T01:32:29.296Z,2.37
2017-12-21T01:34:55.445Z,2.33
2017-12-21T01:37:21.633Z,2.13
2017-12-21T01:39:47.790Z,2.33
2017-12-21T01:42:13.979Z,1.80
2017-12-21T01:44:40.223Z,1.40
2017-12-21T01:47:06.401Z,1.60
2017-12-21T01:49:33.400Z,1.10
2017-12-21T01:51:59.687Z,1.40
2017-12-21T01:54:26.548Z,1.60
2017-12-21T01:56:52.761Z,1.50
2017-12-21T01:59:19.690Z,1.37
2017-12-21T02:01:45.860Z,1.70
2017-12-21T02:04:12.030Z,1.23
2017-12-21T02:06:38.217Z,1.13
2017-12-21T02:09:04.659Z,0.80
2017-12-21T02:11:30.934Z,0.90
2017-12-21T02:13:57.812Z,1.10
2017-12-21T02:16:24.005Z,1.00
2017-12-21T02:18:50.974Z,0.97
2017-12-21T02:21:17.215Z,0.90
2017-12-21T02:23:43.410Z,0.80
2017-12-21T02:26:10.313Z,0.70
2017-12-21T02:28:36.493Z,0.90
2017-12-21T02:31:02.669Z,0.70
2017-12-21T02:33:29.245Z,1.00
2017-12-21T02:35:55.436Z,1.40
2017-12-21T02:38:21.712Z,1.40
2017-12-21T02:40:47.943Z,1.30
2017-12-21T02:43:14.160Z,0.70
2017-12-21T02:45:40.301Z,1.13
2017-12-21T02:48:06.561Z,1.30
2017-12-21T02:50:32.701Z,0.80
2017-12-21T02:52:59.622Z,0.40
2017-12-21T02:55:25.817Z,0.23
2017-12-21T02:57:51.964Z,0.30
2017-12-21T03:00:18.190Z,0.30
2017-12-21T03:02:45.170Z,0.30
2017-12-21T03:05:11.324Z,0.30
2017-12-21T03:07:37.562Z,0.30
2017-12-21T03:10:03.795Z,0.43
2017-12-21T03:12:30.014Z,0.27
2017-12-21T03:14:56.205Z,0.20
2017-12-21T03:17:23.111Z,0.23
2017-12-21T03:19:49.255Z,0.30
2017-12-21T03:22:15.564Z,0.27
2017-12-21T03:24:41.790Z,0.20
2017-12-21T03:27:07.976Z,0.30
2017-12-21T03:29:34.257Z,0.50
2017-12-21T03:32:00.532Z,0.93
2017-12-21T03:34:26.775Z,0.57
2017-12-21T03:36:52.954Z,0.40
2017-12-21T03:39:19.202Z,0.40
2017-12-21T03:41:46.309Z,0.60
2017-12-21T03:44:12.452Z,0.50
2017-12-21T03:46:38.680Z,0.50
2017-12-21T03:49:04.856Z,0.40
2017-12-21T03:51:31.229Z,0.30
2017-12-21T03:53:57.402Z,0.40
2017-12-21T03:56:23.736Z,0.43
2017-12-21T03:58:49.959Z,0.40
2017-12-21T04:01:16.292Z,0.40
2017-12-21T04:03:42.605Z,0.33
2017-12-21T04:06:08.906Z,0.20
2017-12-21T04:08:35.886Z,0.33
2017-12-21T04:11:02.261Z,0.30
2017-12-21T04:13:28.475Z,0.30
2017-12-21T04:15:54.661Z,0.20
2017-12-21T04:18:20.923Z,0.20
2017-12-21T04:20:47.065Z,0.30
2017-12-21T04:23:13.250Z,0.30
2017-12-21T04:25:39.404Z,0.20
2017-12-21T04:28:05.603Z,0.20
2017-12-21T04:30:31.780Z,0.30
2017-12-21T04:32:57.992Z,0.30
2017-12-21T04:35:24.161Z,0.20
2017-12-21T04:37:51.190Z,0.20
2017-12-21T04:40:18.175Z,0.30
2017-12-21T04:42:44.533Z,0.20
2017-12-21T04:45:10.730Z,0.20
2017-12-21T04:47:36.939Z,0.30
2017-12-21T04:50:03.191Z,0.20
2017-12-21T04:52:29.451Z,0.20
2017-12-21T04:54:55.679Z,0.30
2017-12-21T04:57:21.895Z,0.60
2017-12-21T04:59:48.182Z,0.20
2017-12-21T05:02:14.386Z,0.20
2017-12-21T05:04:42.121Z,0.20
2017-12-21T05:07:08.269Z,0.20
2017-12-21T05:09:35.215Z,0.33
2017-12-21T05:12:02.304Z,0.20
2017-12-21T05:14:28.583Z,0.20
2017-12-21T05:16:54.849Z,0.30
2017-12-21T05:19:21.888Z,0.27
2017-12-21T05:21:48.059Z,0.30
2017-12-21T05:24:14.226Z,0.30
2017-12-21T05:26:41.233Z,0.30
2017-12-21T05:29:07.385Z,0.20
2017-12-21T05:31:34.368Z,0.33
2017-12-21T05:34:00.502Z,0.30
2017-12-21T05:36:26.794Z,0.30
2017-12-21T05:38:53.695Z,0.20
2017-12-21T05:41:19.908Z,0.50
2017-12-21T05:43:46.038Z,0.33
2017-12-21T05:46:12.362Z,0.30
2017-12-21T05:48:38.593Z,0.20
2017-12-21T05:51:04.780Z,0.30
2017-12-21T05:53:31.067Z,0.30
2017-12-21T05:55:57.229Z,3.03
2017-12-21T05:58:23.450Z,2.97
2017-12-21T06:00:50.472Z,2.20
2017-12-21T06:03:16.774Z,1.60
2017-12-21T06:05:42.871Z,2.50
2017-12-21T06:08:09.037Z,2.37
2017-12-21T06:10:35.439Z,3.33
2017-12-21T06:13:01.673Z,3.10
2017-12-21T06:15:27.870Z,3.17
2017-12-21T06:17:54.111Z,2.50
2017-12-21T06:20:20.421Z,1.00
2017-12-21T06:22:46.670Z,0.70
2017-12-21T06:25:12.859Z,0.40
2017-12-21T06:27:39.777Z,0.30
2017-12-21T06:30:06.569Z,0.60
2017-12-21T06:32:32.882Z,0.40
2017-12-21T06:34:59.024Z,0.40
2017-12-21T06:37:25.160Z,0.33
2017-12-21T06:39:51.353Z,0.40
2017-12-21T06:42:17.546Z,0.50
2017-12-21T06:44:43.684Z,0.40
2017-12-21T06:47:09.836Z,0.57
2017-12-21T06:49:35.982Z,0.30
2017-12-21T06:52:02.243Z,0.40
2017-12-21T06:54:28.391Z,0.50
2017-12-21T06:56:55.254Z,0.53
2017-12-21T06:59:21.491Z,0.40
2017-12-21T07:01:48.152Z,0.43
2017-12-21T07:04:15.122Z,0.30
2017-12-21T07:06:41.288Z,0.60
2017-12-21T07:09:07.534Z,0.50
2017-12-21T07:11:33.825Z,0.20
2017-12-21T07:14:00.986Z,0.30
2017-12-21T07:16:27.904Z,0.43
2017-12-21T07:18:54.250Z,0.50
2017-12-21T07:21:21.300Z,0.40
2017-12-21T07:23:48.177Z,0.30
2017-12-21T07:26:14.950Z,0.30
2017-12-21T07:28:41.101Z,0.50
2017-12-21T07:31:08.037Z,0.50
2017-12-21T07:33:34.987Z,0.40
2017-12-21T07:36:01.939Z,0.40
2017-12-21T07:38:28.832Z,0.60
2017-12-21T07:40:55.077Z,0.50
2017-12-21T07:43:21.356Z,0.30
2017-12-21T07:45:47.595Z,0.50
2017-12-21T07:48:14.749Z,0.60
2017-12-21T07:50:41.056Z,0.30
2017-12-21T07:53:07.231Z,0.33
2017-12-21T07:55:33.570Z,0.30
2017-12-21T07:57:59.765Z,0.37
2017-12-21T08:00:26.768Z,0.30
2017-12-21T08:02:53.697Z,0.30
2017-12-21T08:05:20.682Z,0.80
2017-12-21T08:07:46.840Z,0.70
2017-12-21T08:10:13.117Z,0.40
2017-12-21T08:12:39.373Z,0.30
2017-12-21T08:15:05.627Z,0.60
2017-12-21T08:17:31.904Z,0.40
2017-12-21T08:19:58.204Z,0.43
2017-12-21T08:22:25.158Z,0.30
2017-12-21T08:24:52.182Z,0.57
2017-12-21T08:27:18.450Z,0.50
2017-12-21T08:29:44.690Z,0.60
2017-12-21T08:32:10.982Z,0.40
2017-12-21T08:34:37.905Z,0.60
2017-12-21T08:37:04.075Z,0.70
2017-12-21T08:39:30.364Z,0.70
2017-12-21T08:41:56.586Z,0.50
2017-12-21T08:44:22.921Z,1.00
2017-12-21T08:46:49.128Z,1.60
2017-12-21T08:49:15.335Z,0.90
2017-12-21T08:51:41.540Z,0.50
2017-12-21T08:54:07.833Z,0.47
2017-12-21T08:56:34.981Z,0.87
2017-12-21T08:59:01.176Z,0.70
2017-12-21T09:01:27.373Z,0.70
2017-12-21T09:03:53.603Z,0.63
2017-12-21T09:06:19.743Z,0.80
2017-12-21T09:08:45.939Z,0.67
2017-12-21T09:11:12.185Z,0.40
2017-12-21T09:13:38.423Z,0.40
2017-12-21T09:16:04.634Z,0.33
2017-12-21T09:18:30.880Z,0.40
2017-12-21T09:20:57.130Z,0.33
2017-12-21T09:23:23.291Z,0.40
2017-12-21T09:25:50.324Z,0.50
2017-12-21T09:28:17.374Z,0.60
2017-12-21T09:30:44.357Z,0.60
2017-12-21T09:33:10.633Z,0.40
2017-12-21T09:35:36.787Z,1.60
2017-12-21T09:38:03.068Z,0.30
2017-12-21T09:40:29.237Z,0.50
2017-12-21T09:42:55.633Z,0.60
2017-12-21T09:45:21.818Z,0.30
2017-12-21T09:47:48.100Z,0.37
2017-12-21T09:50:14.288Z,0.40
2017-12-21T09:52:40.575Z,0.40
2017-12-21T09:55:07.541Z,0.53
2017-12-21T09:57:34.195Z,0.90
2017-12-21T10:00:00.381Z,0.97
2017-12-21T10:02:27.660Z,0.40
2017-12-21T10:04:53.918Z,0.30
2017-12-21T10:07:20.142Z,0.73
2017-12-21T10:09:46.363Z,0.80
2017-12-21T10:12:12.653Z,0.63
2017-12-21T10:14:39.070Z,0.70
2017-12-21T10:17:06.054Z,0.50
2017-12-21T10:19:32.342Z,0.70
2017-12-21T10:21:59.235Z,0.97
2017-12-21T10:24:25.457Z,0.80
2017-12-21T10:26:51.609Z,0.97
2017-12-21T10:29:18.582Z,0.90
2017-12-21T10:31:45.735Z,0.93
2017-12-21T10:34:11.914Z,1.20
2017-12-21T10:36:38.177Z,1.40
2017-12-21T10:39:05.161Z,2.03
2017-12-21T10:41:31.467Z,1.97
2017-12-21T10:43:57.708Z,1.70
2017-12-21T10:46:24.082Z,0.90
2017-12-21T10:48:50.430Z,1.13
2017-12-21T10:51:17.545Z,1.50
2017-12-21T10:53:44.521Z,1.07
2017-12-21T10:56:11.407Z,0.90
2017-12-21T10:58:37.775Z,0.73
2017-12-21T11:01:04.027Z,1.00
2017-12-21T11:03:31.437Z,0.60
2017-12-21T11:05:57.691Z,0.60
2017-12-21T11:08:23.866Z,0.90
2017-12-21T11:10:50.113Z,1.10
2017-12-21T11:13:16.454Z,0.60
2017-12-21T11:15:42.628Z,0.70
2017-12-21T11:18:09.597Z,1.10
2017-12-21T11:20:35.882Z,0.80
2017-12-21T11:23:02.117Z,2.30
2017-12-21T11:25:29.031Z,1.50
2017-12-21T11:27:55.325Z,1.40
2017-12-21T11:30:21.566Z,1.20
2017-12-21T11:32:47.849Z,0.93
2017-12-21T11:35:14.927Z,1.20
2017-12-21T11:37:41.152Z,0.80
2017-12-21T11:40:07.411Z,0.63
2017-12-21T11:42:33.856Z,0.50
2017-12-21T11:45:00.073Z,0.60
2017-12-21T11:47:26.652Z,0.60
2017-12-21T11:49:52.985Z,0.50
2017-12-21T11:52:19.402Z,0.43
2017-12-21T11:54:46.384Z,0.73
2017-12-21T11:57:12.664Z,0.60
2017-12-21T11:59:38.814Z,0.33
2017-12-21T12:02:05.132Z,0.73
2017-12-21T12:04:32.120Z,0.40
2017-12-21T12:06:58.290Z,0.40
2017-12-21T12:09:25.232Z,0.50
2017-12-21T12:11:52.214Z,0.40
2017-12-21T12:14:18.467Z,0.50
2017-12-21T12:16:44.770Z,0.50
2017-12-21T12:19:10.982Z,0.30
2017-12-21T12:21:37.512Z,0.30
2017-12-21T12:24:03.676Z,0.30
2017-12-21T12:26:29.865Z,0.47
2017-12-21T12:28:56.812Z,0.30
2017-12-21T12:31:22.974Z,0.47
2017-12-21T12:33:49.147Z,0.40
2017-12-21T12:36:16.069Z,0.30
2017-12-21T12:38:42.315Z,0.77
2017-12-21T12:41:09.259Z,0.90
2017-12-21T12:43:36.261Z,1.43
2017-12-21T12:46:02.540Z,0.60
2017-12-21T12:48:29.616Z,0.53
2017-12-21T12:50:55.794Z,0.30
2017-12-21T12:53:22.112Z,0.30
2017-12-21T12:55:48.435Z,0.30
2017-12-21T12:58:14.687Z,0.40
2017-12-21T13:00:41.662Z,0.50
2017-12-21T13:03:07.854Z,0.40
2017-12-21T13:05:34.115Z,0.27
2017-12-21T13:08:00.389Z,0.47
2017-12-21T13:10:26.645Z,0.60
2017-12-21T13:12:53.623Z,0.40
2017-12-21T13:15:20.033Z,0.50
2017-12-21T13:17:46.232Z,0.50
2017-12-21T13:20:12.416Z,0.80
2017-12-21T13:22:38.707Z,0.60
2017-12-21T13:25:05.301Z,0.60
2017-12-21T13:27:31.500Z,0.40
2017-12-21T13:29:57.661Z,0.60
2017-12-21T13:32:23.868Z,0.77
2017-12-21T13:34:50.037Z,0.57
2017-12-21T13:37:17.208Z,0.70
2017-12-21T13:39:43.456Z,0.87
2017-12-21T13:42:09.654Z,0.80
2017-12-21T13:44:36.643Z,0.60
2017-12-21T13:47:02.866Z,0.70
2017-12-21T13:49:29.038Z,0.67
2017-12-21T13:51:56.056Z,0.80
2017-12-21T13:54:22.262Z,0.70
2017-12-21T13:56:48.601Z,0.80
2017-12-21T13:59:14.970Z,0.87
2017-12-21T14:01:41.908Z,0.50
2017-12-21T14:04:08.172Z,0.70
2017-12-21T14:06:34.424Z,0.83
2017-12-21T14:09:00.771Z,0.80
2017-12-21T14:11:27.084Z,0.87
2017-12-21T14:13:53.463Z,1.30
2017-12-21T14:16:19.615Z,1.30
2017-12-21T14:18:45.853Z,0.90
2017-12-21T14:21:12.105Z,1.03
2017-12-21T14:23:38.443Z,1.47
2017-12-21T14:26:04.810Z,1.30
2017-12-21T14:28:31.877Z,1.00
2017-12-21T14:30:58.230Z,0.80
2017-12-21T14:33:24.577Z,0.67
2017-12-21T14:35:51.807Z,0.80
2017-12-21T14:38:18.047Z,0.80
2017-12-21T14:40:44.357Z,1.00
2017-12-21T14:43:11.438Z,0.93
2017-12-21T14:45:38.376Z,0.77
2017-12-21T14:48:05.524Z,0.80
2017-12-21T14:50:31.830Z,0.80
2017-12-21T14:52:57.996Z,1.07
2017-12-21T14:55:24.423Z,1.00
2017-12-21T14:57:51.416Z,1.00
2017-12-21T15:00:17.761Z,1.00
2017-12-21T15:02:43.985Z,1.27
2017-12-21T15:05:10.246Z,1.00
2017-12-21T15:07:36.404Z,2.33
2017-12-21T15:10:02.659Z,1.80
2017-12-21T15:12:29.011Z,1.10
2017-12-21T15:14:55.372Z,0.60
2017-12-21T15:17:22.236Z,0.97
2017-12-21T15:19:48.593Z,0.70
2017-12-21T15:22:14.802Z,0.77
2017-12-21T15:24:41.017Z,0.93
2017-12-21T15:27:07.365Z,1.03
2017-12-21T15:29:33.649Z,1.87
2017-12-21T15:31:59.968Z,1.20
2017-12-21T15:34:26.139Z,1.20
2017-12-21T15:36:52.448Z,0.93
2017-12-21T15:39:19.441Z,0.87
2017-12-21T15:41:45.735Z,1.03
2017-12-21T15:44:11.889Z,1.43
2017-12-21T15:46:38.176Z,1.50
2017-12-21T15:49:05.176Z,2.03
2017-12-21T15:51:31.411Z,1.10
2017-12-21T15:53:57.639Z,1.20
2017-12-21T15:56:24.176Z,1.07
2017-12-21T15:58:50.436Z,1.00
2017-12-21T16:01:17.510Z,0.90
2017-12-21T16:03:43.717Z,1.13
2017-12-21T16:06:09.940Z,1.40
2017-12-21T16:08:36.285Z,0.90
2017-12-21T16:11:02.508Z,1.00
2017-12-21T16:13:28.878Z,1.03
2017-12-21T16:15:55.084Z,1.80
2017-12-21T16:18:21.318Z,2.00
2017-12-21T16:20:47.505Z,3.00
2017-12-21T16:23:13.962Z,2.60
2017-12-21T16:25:40.161Z,9.57
2017-12-21T16:28:07.099Z,10.13
2017-12-21T16:30:34.104Z,2.10
2017-12-21T16:33:00.440Z,3.17
2017-12-21T16:35:26.652Z,1.70
2017-12-21T16:37:52.910Z,1.57
2017-12-21T16:40:19.164Z,2.13
2017-12-21T16:42:46.198Z,1.33
2017-12-21T16:45:13.128Z,3.53
2017-12-21T16:47:41.450Z,5.37
2017-12-21T16:50:07.621Z,5.23
2017-12-21T16:52:33.998Z,3.63
2017-12-21T16:55:00.268Z,3.90
2017-12-21T16:57:27.308Z,4.17
2017-12-21T16:59:53.951Z,2.37
2017-12-21T17:02:20.247Z,1.40
2017-12-21T17:04:46.431Z,1.90
2017-12-21T17:07:12.623Z,3.20
2017-12-21T17:09:38.784Z,4.90
2017-12-21T17:12:05.648Z,3.83
2017-12-21T17:14:32.191Z,5.10
2017-12-21T17:16:58.396Z,3.80
2017-12-21T17:19:25.334Z,3.30
2017-12-21T17:21:52.331Z,2.87
2017-12-21T17:24:18.603Z,1.90
2017-12-21T17:26:44.995Z,2.03
2017-12-21T17:29:11.220Z,3.23
2017-12-21T17:31:37.537Z,20.17
2017-12-21T17:34:03.739Z,29.03
2017-12-21T17:36:29.945Z,11.57
2017-12-21T17:38:56.076Z,10.13
2017-12-21T17:41:23.070Z,7.53
2017-12-21T17:43:49.317Z,9.10
2017-12-21T17:46:15.567Z,11.13
2017-12-21T17:48:42.495Z,11.60
2017-12-21T17:51:08.771Z,4.40
2017-12-21T17:53:34.944Z,2.60
2017-12-21T17:56:01.123Z,2.40
2017-12-21T17:58:27.311Z,3.03
2017-12-21T18:00:53.516Z,2.73
2017-12-21T18:03:19.730Z,1.90
2017-12-21T18:05:45.972Z,1.47
2017-12-21T18:08:12.158Z,1.33
2017-12-21T18:10:38.472Z,3.17
2017-12-21T18:13:05.136Z,0.97
2017-12-21T18:15:31.387Z,0.90
2017-12-21T18:17:57.609Z,1.30
2017-12-21T18:20:23.754Z,1.47
2017-12-21T18:22:50.054Z,1.00
2017-12-21T18:25:16.923Z,1.03
2017-12-21T18:27:43.126Z,0.60
2017-12-21T18:30:09.503Z,1.10
2017-12-21T18:32:36.652Z,0.97
2017-12-21T18:35:03.561Z,0.90
2017-12-21T18:37:29.843Z,1.17
2017-12-21T18:39:56.065Z,18.00
2017-12-21T18:42:22.332Z,27.73
2017-12-21T18:44:48.573Z,27.83
2017-12-21T18:47:14.893Z,22.50
2017-12-21T18:49:41.231Z,42.30
2017-12-21T18:52:07.580Z,39.50
2017-12-21T18:54:33.825Z,24.77
2017-12-21T18:57:00.108Z,20.03
2017-12-21T18:59:26.331Z,14.20
2017-12-21T19:01:52.663Z,7.43
2017-12-21T19:04:19.069Z,12.20
2017-12-21T19:06:45.326Z,10.93
2017-12-21T19:09:11.536Z,4.43
2017-12-21T19:11:37.819Z,1.77
2017-12-21T19:14:05.094Z,1.50
2017-12-21T19:16:31.353Z,3.20
2017-12-21T19:18:57.583Z,4.50
2017-12-21T19:21:23.914Z,4.73
2017-12-21T19:23:50.052Z,5.53
2017-12-21T19:26:16.273Z,6.60
2017-12-21T19:28:43.445Z,4.80
2017-12-21T19:31:10.330Z,3.30
2017-12-21T19:33:37.093Z,4.53
2017-12-21T19:36:03.297Z,4.77
2017-12-21T19:38:29.540Z,4.20
2017-12-21T19:40:55.816Z,4.30
2017-12-21T19:43:22.795Z,4.20
2017-12-21T19:45:48.996Z,3.60
2017-12-21T19:48:15.911Z,2.83
2017-12-21T19:50:42.142Z,2.40
2017-12-21T19:53:08.280Z,3.30
2017-12-21T19:55:35.250Z,7.40
2017-12-21T19:58:01.425Z,7.00
2017-12-21T20:00:27.642Z,1.23
2017-12-21T20:02:53.875Z,2.50
2017-12-21T20:05:20.052Z,3.10
2017-12-21T20:07:46.258Z,6.33
2017-12-21T20:10:13.278Z,5.80
2017-12-21T20:12:39.740Z,2.80
2017-12-21T20:15:07.525Z,3.17
2017-12-21T20:17:33.756Z,3.20
2017-12-21T20:20:00.018Z,2.83
2017-12-21T20:22:26.328Z,1.50
2017-12-21T20:24:52.561Z,1.37
2017-12-21T20:27:18.790Z,1.40
2017-12-21T20:29:45.841Z,2.00
2017-12-21T20:32:13.043Z,5.30
2017-12-21T20:34:39.288Z,6.70
2017-12-21T20:37:05.611Z,6.87
2017-12-21T20:39:31.832Z,6.87
2017-12-21T20:41:58.119Z,6.60
2017-12-21T20:44:24.315Z,4.63
2017-12-21T20:46:50.559Z,4.77
2017-12-21T20:49:17.053Z,6.03
2017-12-21T20:51:43.302Z,5.17
2017-12-21T20:54:09.611Z,5.03
2017-12-21T20:56:35.994Z,4.00
2017-12-21T20:59:02.544Z,4.10
2017-12-21T21:01:29.648Z,4.20
2017-12-21T21:03:56.066Z,4.27
2017-12-21T21:06:22.434Z,4.70
2017-12-21T21:08:48.645Z,3.77
2017-12-21T21:11:14.887Z,3.63
2017-12-21T21:13:41.083Z,2.47
2017-12-21T21:16:07.344Z,2.10
2017-12-21T21:18:33.480Z,1.97
2017-12-21T21:21:00.189Z,2.10
2017-12-21T21:23:26.427Z,2.60
2017-12-21T21:25:52.603Z,2.50
2017-12-21T21:28:19.071Z,2.30
2017-12-21T21:30:45.218Z,3.33
2017-12-21T21:33:11.529Z,3.10
2017-12-21T21:35:37.669Z,2.93
2017-12-21T21:38:03.935Z,3.27
2017-12-21T21:40:30.511Z,2.53
2017-12-21T21:42:56.700Z,2.87
2017-12-21T21:45:23.105Z,2.40
2017-12-21T21:47:50.072Z,2.30
2017-12-21T21:50:16.270Z,2.20
2017-12-21T21:52:42.444Z,2.67
2017-12-21T21:55:08.838Z,2.30
2017-12-21T21:57:36.003Z,2.60
2017-12-21T22:00:02.897Z,2.47
2017-12-21T22:02:30.060Z,2.77
2017-12-21T22:04:56.213Z,3.90
2017-12-21T22:07:23.172Z,5.00
2017-12-21T22:09:49.402Z,8.20
2017-12-21T22:12:15.757Z,8.13
2017-12-21T22:14:41.988Z,5.00
2017-12-21T22:17:08.178Z,5.87
2017-12-21T22:19:34.539Z,7.23
2017-12-21T22:22:00.764Z,8.33
2017-12-21T22:24:26.985Z,8.10
2017-12-21T22:26:53.178Z,6.60
2017-12-21T22:29:19.471Z,6.70
2017-12-21T22:31:45.857Z,7.33
2017-12-21T22:34:12.008Z,5.37
2017-12-21T22:36:38.253Z,4.47
2017-12-21T22:39:05.917Z,2.97
2017-12-21T22:41:32.088Z,3.20
2017-12-21T22:43:58.567Z,2.50
2017-12-21T22:46:24.735Z,2.77
2017-12-21T22:48:51.037Z,2.93
2017-12-21T22:51:17.780Z,2.40
2017-12-21T22:53:43.964Z,2.93
2017-12-21T22:56:10.167Z,2.67
2017-12-21T22:58:36.378Z,3.60
2017-12-21T23:01:02.650Z,2.93
2017-12-21T23:03:28.906Z,2.60
2017-12-21T23:05:55.171Z,2.93
2017-12-21T23:08:21.597Z,2.73
2017-12-21T23:10:47.871Z,6.90
2017-12-21T23:13:14.241Z,6.77
2017-12-21T23:15:41.278Z,8.60
2017-12-21T23:18:08.428Z,9.87
2017-12-21T23:20:35.359Z,6.30
2017-12-21T23:23:02.316Z,7.83
2017-12-21T23:25:29.300Z,7.40
2017-12-21T23:27:55.597Z,11.60
2017-12-21T23:30:22.635Z,9.70
2017-12-21T23:32:49.573Z,9.00
2017-12-21T23:35:16.540Z,8.27
2017-12-21T23:37:43.679Z,7.50
2017-12-21T23:40:11.212Z,6.33
2017-12-21T23:42:37.492Z,6.50
2017-12-21T23:45:03.630Z,6.40
2017-12-21T23:47:29.828Z,5.67
2017-12-21T23:49:56.031Z,6.00
2017-12-21T23:52:23.248Z,4.63
2017-12-21T23:54:49.439Z,4.50
2017-12-21T23:57:15.633Z,4.97
2017-12-21T23:59:42.639Z,5.10
